sensor_id;sensor_type;location;lat;lon;timestamp;P1;durP1;ratioP1;P2;durP2;ratioP2
64520;SDS011;50896;46.714;17.322;2023-07-20T00:01:29;4.55;;;1.67;;
64520;SDS011;50896;46.714;17.322;2023-07-20T00:04:14;5.25;;;1.73;;
64520;SDS011;50896;46.714;17.322;2023-07-20T00:06:54;3.30;;;1.65;;
64520;SDS011;50896;46.714;17.322;2023-07-20T00:09:31;9.30;;;2.20;;
64520;SDS011;50896;46.714;17.322;2023-07-20T00:12:04;4.43;;;1.70;;
64520;SDS011;50896;46.714;17.322;2023-07-20T00:14:33;3.03;;;1.58;;
64520;SDS011;50896;46.714;17.322;2023-07-20T00:17:03;6.90;;;1.95;;
64520;SDS011;50896;46.714;17.322;2023-07-20T00:19:32;6.07;;;1.60;;
64520;SDS011;50896;46.714;17.322;2023-07-20T00:22:11;5.13;;;2.05;;
64520;SDS011;50896;46.714;17.322;2023-07-20T00:24:48;6.90;;;2.10;;
64520;SDS011;50896;46.714;17.322;2023-07-20T00:27:23;3.65;;;2.08;;
64520;SDS011;50896;46.714;17.322;2023-07-20T00:29:51;6.57;;;1.75;;
64520;SDS011;50896;46.714;17.322;2023-07-20T00:32:23;5.22;;;1.67;;
64520;SDS011;50896;46.714;17.322;2023-07-20T00:34:51;6.50;;;1.70;;
64520;SDS011;50896;46.714;17.322;2023-07-20T00:37:21;4.65;;;1.98;;
64520;SDS011;50896;46.714;17.322;2023-07-20T00:39:53;3.30;;;1.70;;
64520;SDS011;50896;46.714;17.322;2023-07-20T00:42:26;3.00;;;1.70;;
64520;SDS011;50896;46.714;17.322;2023-07-20T00:44:55;6.43;;;1.90;;
64520;SDS011;50896;46.714;17.322;2023-07-20T00:47:32;5.60;;;1.70;;
64520;SDS011;50896;46.714;17.322;2023-07-20T00:50:02;5.40;;;2.17;;
64520;SDS011;50896;46.714;17.322;2023-07-20T00:52:33;5.80;;;2.05;;
64520;SDS011;50896;46.714;17.322;2023-07-20T00:55:13;6.00;;;1.80;;
64520;SDS011;50896;46.714;17.322;2023-07-20T00:58:06;2.28;;;1.67;;
64520;SDS011;50896;46.714;17.322;2023-07-20T01:00:38;4.40;;;1.98;;
64520;SDS011;50896;46.714;17.322;2023-07-20T01:03:06;4.32;;;1.90;;
64520;SDS011;50896;46.714;17.322;2023-07-20T01:08:38;4.50;;;1.85;;
64520;SDS011;50896;46.714;17.322;2023-07-20T01:11:40;3.35;;;1.90;;
64520;SDS011;50896;46.714;17.322;2023-07-20T01:14:15;4.23;;;1.87;;
64520;SDS011;50896;46.714;17.322;2023-07-20T01:16:49;11.05;;;2.33;;
64520;SDS011;50896;46.714;17.322;2023-07-20T01:19:27;3.55;;;2.00;;
64520;SDS011;50896;46.714;17.322;2023-07-20T01:22:09;6.03;;;2.30;;
64520;SDS011;50896;46.714;17.322;2023-07-20T01:25:21;5.67;;;1.83;;
64520;SDS011;50896;46.714;17.322;2023-07-20T01:28:37;2.08;;;1.35;;
64520;SDS011;50896;46.714;17.322;2023-07-20T01:33:46;5.50;;;2.10;;
64520;SDS011;50896;46.714;17.322;2023-07-20T01:36:19;5.82;;;2.22;;
64520;SDS011;50896;46.714;17.322;2023-07-20T01:38:52;4.18;;;1.90;;
64520;SDS011;50896;46.714;17.322;2023-07-20T01:41:32;5.35;;;1.80;;
64520;SDS011;50896;46.714;17.322;2023-07-20T01:44:04;7.40;;;1.98;;
64520;SDS011;50896;46.714;17.322;2023-07-20T01:46:38;11.50;;;1.92;;
64520;SDS011;50896;46.714;17.322;2023-07-20T01:49:16;4.53;;;2.15;;
64520;SDS011;50896;46.714;17.322;2023-07-20T01:51:43;7.45;;;1.80;;
64520;SDS011;50896;46.714;17.322;2023-07-20T01:54:19;4.82;;;2.05;;
64520;SDS011;50896;46.714;17.322;2023-07-20T01:57:00;3.58;;;1.90;;
64520;SDS011;50896;46.714;17.322;2023-07-20T01:59:29;3.42;;;1.73;;
64520;SDS011;50896;46.714;17.322;2023-07-20T02:02:06;7.45;;;2.17;;
64520;SDS011;50896;46.714;17.322;2023-07-20T02:04:36;5.60;;;2.08;;
64520;SDS011;50896;46.714;17.322;2023-07-20T02:07:04;3.58;;;1.88;;
64520;SDS011;50896;46.714;17.322;2023-07-20T02:09:37;4.78;;;2.00;;
64520;SDS011;50896;46.714;17.322;2023-07-20T02:12:16;7.93;;;2.05;;
64520;SDS011;50896;46.714;17.322;2023-07-20T02:14:46;6.97;;;1.80;;
64520;SDS011;50896;46.714;17.322;2023-07-20T02:17:20;6.50;;;2.00;;
64520;SDS011;50896;46.714;17.322;2023-07-20T02:19:50;6.45;;;2.03;;
64520;SDS011;50896;46.714;17.322;2023-07-20T02:22:22;7.45;;;2.00;;
64520;SDS011;50896;46.714;17.322;2023-07-20T02:24:50;5.30;;;1.90;;
64520;SDS011;50896;46.714;17.322;2023-07-20T02:27:28;5.40;;;2.10;;
64520;SDS011;50896;46.714;17.322;2023-07-20T02:30:03;8.07;;;2.13;;
64520;SDS011;50896;46.714;17.322;2023-07-20T02:32:36;6.05;;;1.80;;
64520;SDS011;50896;46.714;17.322;2023-07-20T02:35:07;6.35;;;1.92;;
64520;SDS011;50896;46.714;17.322;2023-07-20T02:37:36;4.07;;;2.00;;
64520;SDS011;50896;46.714;17.322;2023-07-20T02:40:08;5.60;;;1.92;;
64520;SDS011;50896;46.714;17.322;2023-07-20T02:42:38;7.78;;;2.10;;
64520;SDS011;50896;46.714;17.322;2023-07-20T02:45:12;4.75;;;2.03;;
64520;SDS011;50896;46.714;17.322;2023-07-20T02:47:39;4.75;;;1.92;;
64520;SDS011;50896;46.714;17.322;2023-07-20T02:50:12;6.05;;;1.90;;
64520;SDS011;50896;46.714;17.322;2023-07-20T02:52:44;5.60;;;2.08;;
64520;SDS011;50896;46.714;17.322;2023-07-20T02:55:12;3.70;;;1.65;;
64520;SDS011;50896;46.714;17.322;2023-07-20T02:57:42;5.82;;;1.88;;
64520;SDS011;50896;46.714;17.322;2023-07-20T03:00:16;4.43;;;1.67;;
64520;SDS011;50896;46.714;17.322;2023-07-20T03:02:47;14.93;;;2.28;;
64520;SDS011;50896;46.714;17.322;2023-07-20T03:05:17;6.32;;;2.00;;
64520;SDS011;50896;46.714;17.322;2023-07-20T03:07:46;4.82;;;2.13;;
64520;SDS011;50896;46.714;17.322;2023-07-20T03:10:15;5.07;;;1.85;;
64520;SDS011;50896;46.714;17.322;2023-07-20T03:12:43;5.63;;;2.13;;
64520;SDS011;50896;46.714;17.322;2023-07-20T03:15:16;4.30;;;1.60;;
64520;SDS011;50896;46.714;17.322;2023-07-20T03:17:45;4.45;;;2.00;;
64520;SDS011;50896;46.714;17.322;2023-07-20T03:20:13;7.68;;;2.22;;
64520;SDS011;50896;46.714;17.322;2023-07-20T03:22:44;6.10;;;2.13;;
64520;SDS011;50896;46.714;17.322;2023-07-20T03:25:15;5.93;;;2.00;;
64520;SDS011;50896;46.714;17.322;2023-07-20T03:27:46;6.75;;;1.90;;
64520;SDS011;50896;46.714;17.322;2023-07-20T03:33:28;3.05;;;1.70;;
64520;SDS011;50896;46.714;17.322;2023-07-20T03:36:02;5.38;;;2.00;;
64520;SDS011;50896;46.714;17.322;2023-07-20T03:38:32;3.42;;;2.17;;
64520;SDS011;50896;46.714;17.322;2023-07-20T03:41:04;8.13;;;2.30;;
64520;SDS011;50896;46.714;17.322;2023-07-20T03:43:39;4.40;;;1.75;;
64520;SDS011;50896;46.714;17.322;2023-07-20T03:46:09;7.35;;;2.08;;
64520;SDS011;50896;46.714;17.322;2023-07-20T03:48:40;6.68;;;2.13;;
64520;SDS011;50896;46.714;17.322;2023-07-20T03:51:09;7.00;;;1.87;;
64520;SDS011;50896;46.714;17.322;2023-07-20T03:53:38;3.58;;;1.40;;
64520;SDS011;50896;46.714;17.322;2023-07-20T03:56:11;4.75;;;2.25;;
64520;SDS011;50896;46.714;17.322;2023-07-20T03:58:40;7.18;;;2.10;;
64520;SDS011;50896;46.714;17.322;2023-07-20T04:01:10;7.22;;;2.10;;
64520;SDS011;50896;46.714;17.322;2023-07-20T04:03:44;6.72;;;2.10;;
64520;SDS011;50896;46.714;17.322;2023-07-20T04:06:17;4.57;;;1.92;;
64520;SDS011;50896;46.714;17.322;2023-07-20T04:08:50;3.90;;;1.90;;
64520;SDS011;50896;46.714;17.322;2023-07-20T04:11:19;3.85;;;1.65;;
64520;SDS011;50896;46.714;17.322;2023-07-20T04:13:48;6.70;;;2.20;;
64520;SDS011;50896;46.714;17.322;2023-07-20T04:16:36;7.45;;;1.92;;
64520;SDS011;50896;46.714;17.322;2023-07-20T04:19:14;4.20;;;1.80;;
64520;SDS011;50896;46.714;17.322;2023-07-20T04:21:52;5.03;;;2.10;;
64520;SDS011;50896;46.714;17.322;2023-07-20T04:24:45;5.65;;;2.10;;
64520;SDS011;50896;46.714;17.322;2023-07-20T04:27:19;4.82;;;2.28;;
64520;SDS011;50896;46.714;17.322;2023-07-20T04:29:50;4.35;;;1.90;;
64520;SDS011;50896;46.714;17.322;2023-07-20T04:32:19;5.63;;;1.95;;
64520;SDS011;50896;46.714;17.322;2023-07-20T04:34:48;4.22;;;1.95;;
64520;SDS011;50896;46.714;17.322;2023-07-20T04:37:19;5.63;;;2.08;;
64520;SDS011;50896;46.714;17.322;2023-07-20T04:39:48;9.02;;;2.20;;
64520;SDS011;50896;46.714;17.322;2023-07-20T04:42:23;5.55;;;2.10;;
64520;SDS011;50896;46.714;17.322;2023-07-20T04:47:18;9.30;;;2.40;;
64520;SDS011;50896;46.714;17.322;2023-07-20T04:49:51;9.27;;;1.88;;
64520;SDS011;50896;46.714;17.322;2023-07-20T04:52:18;5.82;;;1.88;;
64520;SDS011;50896;46.714;17.322;2023-07-20T04:55:10;5.13;;;2.20;;
64520;SDS011;50896;46.714;17.322;2023-07-20T04:57:44;4.75;;;2.13;;
64520;SDS011;50896;46.714;17.322;2023-07-20T05:00:16;8.13;;;2.33;;
64520;SDS011;50896;46.714;17.322;2023-07-20T05:02:49;6.35;;;2.45;;
64520;SDS011;50896;46.714;17.322;2023-07-20T05:05:18;5.80;;;2.17;;
64520;SDS011;50896;46.714;17.322;2023-07-20T05:07:56;5.15;;;1.88;;
64520;SDS011;50896;46.714;17.322;2023-07-20T05:10:26;9.02;;;2.08;;
64520;SDS011;50896;46.714;17.322;2023-07-20T05:12:58;4.93;;;2.08;;
64520;SDS011;50896;46.714;17.322;2023-07-20T05:15:34;5.85;;;1.90;;
64520;SDS011;50896;46.714;17.322;2023-07-20T05:18:10;4.85;;;2.00;;
64520;SDS011;50896;46.714;17.322;2023-07-20T05:20:41;5.50;;;2.20;;
64520;SDS011;50896;46.714;17.322;2023-07-20T05:23:10;4.32;;;2.20;;
64520;SDS011;50896;46.714;17.322;2023-07-20T05:25:56;6.18;;;1.92;;
64520;SDS011;50896;46.714;17.322;2023-07-20T05:28:28;6.43;;;1.75;;
64520;SDS011;50896;46.714;17.322;2023-07-20T05:31:05;3.90;;;2.00;;
64520;SDS011;50896;46.714;17.322;2023-07-20T05:33:35;7.35;;;2.45;;
64520;SDS011;50896;46.714;17.322;2023-07-20T05:36:06;6.18;;;2.08;;
64520;SDS011;50896;46.714;17.322;2023-07-20T05:39:04;3.45;;;2.10;;
64520;SDS011;50896;46.714;17.322;2023-07-20T05:41:36;5.55;;;1.67;;
64520;SDS011;50896;46.714;17.322;2023-07-20T05:44:08;4.28;;;1.95;;
64520;SDS011;50896;46.714;17.322;2023-07-20T05:46:45;5.88;;;1.85;;
64520;SDS011;50896;46.714;17.322;2023-07-20T05:49:23;5.00;;;2.38;;
64520;SDS011;50896;46.714;17.322;2023-07-20T05:51:52;4.03;;;1.77;;
64520;SDS011;50896;46.714;17.322;2023-07-20T05:54:21;6.45;;;1.90;;
64520;SDS011;50896;46.714;17.322;2023-07-20T05:56:55;3.92;;;1.92;;
64520;SDS011;50896;46.714;17.322;2023-07-20T05:59:30;4.43;;;2.00;;
64520;SDS011;50896;46.714;17.322;2023-07-20T06:02:00;3.20;;;1.73;;
64520;SDS011;50896;46.714;17.322;2023-07-20T06:04:32;3.10;;;2.00;;
64520;SDS011;50896;46.714;17.322;2023-07-20T06:07:13;5.65;;;2.35;;
64520;SDS011;50896;46.714;17.322;2023-07-20T06:09:43;6.78;;;2.50;;
64520;SDS011;50896;46.714;17.322;2023-07-20T06:12:15;5.75;;;2.42;;
64520;SDS011;50896;46.714;17.322;2023-07-20T06:14:45;6.50;;;2.20;;
64520;SDS011;50896;46.714;17.322;2023-07-20T06:17:13;7.38;;;2.10;;
64520;SDS011;50896;46.714;17.322;2023-07-20T06:19:41;6.38;;;2.20;;
64520;SDS011;50896;46.714;17.322;2023-07-20T06:22:10;6.40;;;1.83;;
64520;SDS011;50896;46.714;17.322;2023-07-20T06:24:41;4.97;;;2.10;;
64520;SDS011;50896;46.714;17.322;2023-07-20T06:27:08;5.47;;;1.95;;
64520;SDS011;50896;46.714;17.322;2023-07-20T06:29:41;3.75;;;1.70;;
64520;SDS011;50896;46.714;17.322;2023-07-20T06:32:19;5.77;;;2.03;;
64520;SDS011;50896;46.714;17.322;2023-07-20T06:34:59;6.22;;;2.35;;
64520;SDS011;50896;46.714;17.322;2023-07-20T06:37:40;6.80;;;2.20;;
64520;SDS011;50896;46.714;17.322;2023-07-20T06:40:20;4.20;;;2.00;;
64520;SDS011;50896;46.714;17.322;2023-07-20T06:42:57;2.13;;;1.77;;
64520;SDS011;50896;46.714;17.322;2023-07-20T06:45:31;3.33;;;1.95;;
64520;SDS011;50896;46.714;17.322;2023-07-20T06:48:15;5.28;;;2.55;;
64520;SDS011;50896;46.714;17.322;2023-07-20T06:50:54;5.15;;;2.20;;
64520;SDS011;50896;46.714;17.322;2023-07-20T06:53:26;8.07;;;2.30;;
64520;SDS011;50896;46.714;17.322;2023-07-20T06:56:01;4.20;;;2.25;;
64520;SDS011;50896;46.714;17.322;2023-07-20T06:58:34;4.82;;;2.40;;
64520;SDS011;50896;46.714;17.322;2023-07-20T07:01:07;5.25;;;2.42;;
64520;SDS011;50896;46.714;17.322;2023-07-20T07:03:42;5.32;;;2.63;;
64520;SDS011;50896;46.714;17.322;2023-07-20T07:06:12;8.75;;;2.45;;
64520;SDS011;50896;46.714;17.322;2023-07-20T07:08:42;5.07;;;2.67;;
64520;SDS011;50896;46.714;17.322;2023-07-20T07:11:15;4.78;;;2.97;;
64520;SDS011;50896;46.714;17.322;2023-07-20T07:13:44;5.05;;;2.55;;
64520;SDS011;50896;46.714;17.322;2023-07-20T07:16:27;3.65;;;2.42;;
64520;SDS011;50896;46.714;17.322;2023-07-20T07:19:29;4.82;;;2.70;;
64520;SDS011;50896;46.714;17.322;2023-07-20T07:22:10;5.13;;;2.78;;
64520;SDS011;50896;46.714;17.322;2023-07-20T07:24:39;6.68;;;2.60;;
64520;SDS011;50896;46.714;17.322;2023-07-20T07:27:13;4.75;;;2.85;;
64520;SDS011;50896;46.714;17.322;2023-07-20T07:29:45;5.35;;;2.30;;
64520;SDS011;50896;46.714;17.322;2023-07-20T07:32:25;5.55;;;2.70;;
64520;SDS011;50896;46.714;17.322;2023-07-20T07:34:56;5.72;;;2.83;;
64520;SDS011;50896;46.714;17.322;2023-07-20T07:37:27;4.43;;;2.80;;
64520;SDS011;50896;46.714;17.322;2023-07-20T07:40:07;3.33;;;2.30;;
64520;SDS011;50896;46.714;17.322;2023-07-20T07:42:39;6.15;;;2.80;;
64520;SDS011;50896;46.714;17.322;2023-07-20T07:45:13;6.60;;;2.75;;
64520;SDS011;50896;46.714;17.322;2023-07-20T07:47:44;4.22;;;2.72;;
64520;SDS011;50896;46.714;17.322;2023-07-20T07:50:15;6.18;;;2.65;;
64520;SDS011;50896;46.714;17.322;2023-07-20T07:52:49;5.60;;;2.50;;
64520;SDS011;50896;46.714;17.322;2023-07-20T07:55:24;4.40;;;2.75;;
64520;SDS011;50896;46.714;17.322;2023-07-20T07:58:01;6.35;;;2.40;;
64520;SDS011;50896;46.714;17.322;2023-07-20T08:00:30;6.40;;;2.83;;
64520;SDS011;50896;46.714;17.322;2023-07-20T08:03:02;4.63;;;2.88;;
64520;SDS011;50896;46.714;17.322;2023-07-20T08:05:34;5.70;;;2.40;;
64520;SDS011;50896;46.714;17.322;2023-07-20T08:08:03;5.63;;;2.60;;
64520;SDS011;50896;46.714;17.322;2023-07-20T08:10:35;3.05;;;2.15;;
64520;SDS011;50896;46.714;17.322;2023-07-20T08:13:03;5.53;;;2.88;;
64520;SDS011;50896;46.714;17.322;2023-07-20T08:15:36;6.03;;;2.88;;
64520;SDS011;50896;46.714;17.322;2023-07-20T08:18:06;6.47;;;2.90;;
64520;SDS011;50896;46.714;17.322;2023-07-20T08:20:38;7.78;;;2.80;;
64520;SDS011;50896;46.714;17.322;2023-07-20T08:23:14;5.25;;;2.80;;
64520;SDS011;50896;46.714;17.322;2023-07-20T08:25:44;3.30;;;2.53;;
64520;SDS011;50896;46.714;17.322;2023-07-20T08:28:16;4.45;;;2.50;;
64520;SDS011;50896;46.714;17.322;2023-07-20T08:30:47;3.72;;;1.88;;
64520;SDS011;50896;46.714;17.322;2023-07-20T08:33:25;3.05;;;2.35;;
64520;SDS011;50896;46.714;17.322;2023-07-20T08:36:00;4.07;;;2.30;;
64520;SDS011;50896;46.714;17.322;2023-07-20T08:38:31;3.45;;;2.28;;
64520;SDS011;50896;46.714;17.322;2023-07-20T08:41:02;6.15;;;2.70;;
64520;SDS011;50896;46.714;17.322;2023-07-20T08:43:34;3.92;;;2.70;;
64520;SDS011;50896;46.714;17.322;2023-07-20T08:46:11;3.65;;;2.65;;
64520;SDS011;50896;46.714;17.322;2023-07-20T08:48:43;3.45;;;2.20;;
64520;SDS011;50896;46.714;17.322;2023-07-20T08:51:19;6.57;;;2.65;;
64520;SDS011;50896;46.714;17.322;2023-07-20T08:53:50;4.03;;;2.50;;
64520;SDS011;50896;46.714;17.322;2023-07-20T08:56:21;3.83;;;2.42;;
64520;SDS011;50896;46.714;17.322;2023-07-20T08:58:56;4.15;;;2.40;;
64520;SDS011;50896;46.714;17.322;2023-07-20T09:01:50;4.07;;;2.17;;
64520;SDS011;50896;46.714;17.322;2023-07-20T09:04:28;4.07;;;2.30;;
64520;SDS011;50896;46.714;17.322;2023-07-20T09:06:57;4.45;;;2.33;;
64520;SDS011;50896;46.714;17.322;2023-07-20T09:09:51;2.88;;;2.30;;
64520;SDS011;50896;46.714;17.322;2023-07-20T09:12:21;2.90;;;1.98;;
64520;SDS011;50896;46.714;17.322;2023-07-20T09:14:51;3.28;;;2.25;;
64520;SDS011;50896;46.714;17.322;2023-07-20T09:17:27;4.25;;;2.30;;
64520;SDS011;50896;46.714;17.322;2023-07-20T09:19:56;4.22;;;2.17;;
64520;SDS011;50896;46.714;17.322;2023-07-20T09:22:36;5.07;;;2.50;;
64520;SDS011;50896;46.714;17.322;2023-07-20T09:25:16;2.67;;;2.13;;
64520;SDS011;50896;46.714;17.322;2023-07-20T09:27:49;3.03;;;2.00;;
64520;SDS011;50896;46.714;17.322;2023-07-20T09:30:24;3.22;;;2.47;;
64520;SDS011;50896;46.714;17.322;2023-07-20T09:33:07;3.78;;;2.13;;
64520;SDS011;50896;46.714;17.322;2023-07-20T09:35:51;6.03;;;2.58;;
64520;SDS011;50896;46.714;17.322;2023-07-20T09:38:28;2.97;;;2.08;;
64520;SDS011;50896;46.714;17.322;2023-07-20T09:41:23;4.70;;;2.47;;
64520;SDS011;50896;46.714;17.322;2023-07-20T09:43:56;7.95;;;2.72;;
64520;SDS011;50896;46.714;17.322;2023-07-20T09:46:51;2.90;;;2.38;;
64520;SDS011;50896;46.714;17.322;2023-07-20T09:49:26;5.88;;;2.85;;
64520;SDS011;50896;46.714;17.322;2023-07-20T09:52:03;3.88;;;2.50;;
64520;SDS011;50896;46.714;17.322;2023-07-20T09:54:35;5.28;;;2.58;;
64520;SDS011;50896;46.714;17.322;2023-07-20T09:57:08;4.25;;;2.40;;
64520;SDS011;50896;46.714;17.322;2023-07-20T09:59:40;4.32;;;2.35;;
64520;SDS011;50896;46.714;17.322;2023-07-20T10:02:21;4.90;;;2.60;;
64520;SDS011;50896;46.714;17.322;2023-07-20T10:05:03;3.97;;;2.40;;
64520;SDS011;50896;46.714;17.322;2023-07-20T10:07:33;4.40;;;2.35;;
64520;SDS011;50896;46.714;17.322;2023-07-20T10:10:07;5.10;;;2.30;;
64520;SDS011;50896;46.714;17.322;2023-07-20T10:12:41;3.92;;;2.03;;
64520;SDS011;50896;46.714;17.322;2023-07-20T10:20:55;5.45;;;2.10;;
64520;SDS011;50896;46.714;17.322;2023-07-20T10:23:28;5.55;;;2.13;;
64520;SDS011;50896;46.714;17.322;2023-07-20T10:26:01;3.97;;;2.10;;
64520;SDS011;50896;46.714;17.322;2023-07-20T10:28:30;3.33;;;2.00;;
64520;SDS011;50896;46.714;17.322;2023-07-20T10:31:00;3.55;;;2.10;;
64520;SDS011;50896;46.714;17.322;2023-07-20T10:33:31;3.65;;;2.15;;
64520;SDS011;50896;46.714;17.322;2023-07-20T10:36:27;5.78;;;2.35;;
64520;SDS011;50896;46.714;17.322;2023-07-20T10:38:58;2.90;;;2.03;;
64520;SDS011;50896;46.714;17.322;2023-07-20T10:41:31;2.97;;;1.77;;
64520;SDS011;50896;46.714;17.322;2023-07-20T10:44:10;3.67;;;2.33;;
64520;SDS011;50896;46.714;17.322;2023-07-20T10:49:08;3.00;;;1.90;;
64520;SDS011;50896;46.714;17.322;2023-07-20T10:51:46;5.50;;;2.05;;
64520;SDS011;50896;46.714;17.322;2023-07-20T10:54:34;2.33;;;2.13;;
64520;SDS011;50896;46.714;17.322;2023-07-20T10:57:24;2.72;;;1.85;;
64520;SDS011;50896;46.714;17.322;2023-07-20T11:00:12;4.05;;;1.80;;
64520;SDS011;50896;46.714;17.322;2023-07-20T11:02:48;2.97;;;1.80;;
64520;SDS011;50896;46.714;17.322;2023-07-20T11:05:34;3.72;;;2.15;;
64520;SDS011;50896;46.714;17.322;2023-07-20T11:08:11;4.03;;;1.70;;
64520;SDS011;50896;46.714;17.322;2023-07-20T11:10:43;2.30;;;1.70;;
64520;SDS011;50896;46.714;17.322;2023-07-20T11:13:23;2.35;;;1.65;;
64520;SDS011;50896;46.714;17.322;2023-07-20T11:18:27;3.55;;;1.80;;
64520;SDS011;50896;46.714;17.322;2023-07-20T11:21:01;4.07;;;1.98;;
64520;SDS011;50896;46.714;17.322;2023-07-20T11:23:30;3.88;;;2.10;;
64520;SDS011;50896;46.714;17.322;2023-07-20T11:26:11;5.15;;;1.88;;
64520;SDS011;50896;46.714;17.322;2023-07-20T11:28:42;3.90;;;2.03;;
64520;SDS011;50896;46.714;17.322;2023-07-20T11:31:14;4.25;;;2.13;;
64520;SDS011;50896;46.714;17.322;2023-07-20T11:33:46;3.28;;;1.58;;
64520;SDS011;50896;46.714;17.322;2023-07-20T11:36:14;2.00;;;1.75;;
64520;SDS011;50896;46.714;17.322;2023-07-20T11:38:53;2.30;;;1.52;;
64520;SDS011;50896;46.714;17.322;2023-07-20T11:41:24;3.47;;;2.15;;
64520;SDS011;50896;46.714;17.322;2023-07-20T11:44:03;1.80;;;1.58;;
64520;SDS011;50896;46.714;17.322;2023-07-20T11:46:33;3.90;;;1.33;;
64520;SDS011;50896;46.714;17.322;2023-07-20T11:49:05;1.85;;;1.58;;
64520;SDS011;50896;46.714;17.322;2023-07-20T11:51:35;2.53;;;1.40;;
64520;SDS011;50896;46.714;17.322;2023-07-20T11:54:08;2.00;;;1.73;;
64520;SDS011;50896;46.714;17.322;2023-07-20T11:56:44;4.57;;;1.70;;
64520;SDS011;50896;46.714;17.322;2023-07-20T11:59:14;2.97;;;1.90;;
64520;SDS011;50896;46.714;17.322;2023-07-20T12:01:47;2.63;;;1.73;;
64520;SDS011;50896;46.714;17.322;2023-07-20T12:04:22;1.60;;;1.50;;
64520;SDS011;50896;46.714;17.322;2023-07-20T12:06:55;2.97;;;1.75;;
64520;SDS011;50896;46.714;17.322;2023-07-20T12:09:24;2.38;;;1.42;;
64520;SDS011;50896;46.714;17.322;2023-07-20T12:12:11;4.72;;;1.83;;
64520;SDS011;50896;46.714;17.322;2023-07-20T12:14:46;3.50;;;1.67;;
64520;SDS011;50896;46.714;17.322;2023-07-20T12:17:19;5.28;;;1.77;;
64520;SDS011;50896;46.714;17.322;2023-07-20T12:19:49;3.50;;;1.60;;
64520;SDS011;50896;46.714;17.322;2023-07-20T12:22:25;5.43;;;2.03;;
64520;SDS011;50896;46.714;17.322;2023-07-20T12:24:56;3.33;;;1.63;;
64520;SDS011;50896;46.714;17.322;2023-07-20T12:27:27;2.45;;;1.52;;
64520;SDS011;50896;46.714;17.322;2023-07-20T12:30:01;3.28;;;1.48;;
64520;SDS011;50896;46.714;17.322;2023-07-20T12:32:31;2.70;;;1.77;;
64520;SDS011;50896;46.714;17.322;2023-07-20T12:35:05;3.38;;;1.60;;
64520;SDS011;50896;46.714;17.322;2023-07-20T12:37:35;2.42;;;1.80;;
64520;SDS011;50896;46.714;17.322;2023-07-20T12:40:05;1.88;;;1.50;;
64520;SDS011;50896;46.714;17.322;2023-07-20T12:42:41;2.75;;;1.67;;
64520;SDS011;50896;46.714;17.322;2023-07-20T12:45:11;2.08;;;1.50;;
64520;SDS011;50896;46.714;17.322;2023-07-20T12:47:41;3.30;;;1.40;;
64520;SDS011;50896;46.714;17.322;2023-07-20T12:52:39;3.60;;;1.77;;
64520;SDS011;50896;46.714;17.322;2023-07-20T12:55:08;5.47;;;1.75;;
64520;SDS011;50896;46.714;17.322;2023-07-20T12:57:49;2.40;;;1.38;;
64520;SDS011;50896;46.714;17.322;2023-07-20T13:00:17;2.58;;;1.63;;
64520;SDS011;50896;46.714;17.322;2023-07-20T13:02:54;3.33;;;1.55;;
64520;SDS011;50896;46.714;17.322;2023-07-20T13:05:29;3.55;;;1.55;;
64520;SDS011;50896;46.714;17.322;2023-07-20T13:08:06;1.83;;;1.35;;
64520;SDS011;50896;46.714;17.322;2023-07-20T13:10:38;2.85;;;1.80;;
64520;SDS011;50896;46.714;17.322;2023-07-20T13:13:12;3.00;;;1.33;;
64520;SDS011;50896;46.714;17.322;2023-07-20T13:15:53;1.73;;;1.50;;
64520;SDS011;50896;46.714;17.322;2023-07-20T13:18:21;3.28;;;1.70;;
64520;SDS011;50896;46.714;17.322;2023-07-20T13:20:52;3.13;;;1.70;;
64520;SDS011;50896;46.714;17.322;2023-07-20T13:23:28;2.30;;;1.45;;
64520;SDS011;50896;46.714;17.322;2023-07-20T13:25:59;3.22;;;1.60;;
64520;SDS011;50896;46.714;17.322;2023-07-20T13:28:30;1.77;;;1.30;;
64520;SDS011;50896;46.714;17.322;2023-07-20T13:30:58;2.80;;;1.52;;
64520;SDS011;50896;46.714;17.322;2023-07-20T13:33:27;3.15;;;1.58;;
64520;SDS011;50896;46.714;17.322;2023-07-20T13:36:05;4.65;;;1.70;;
64520;SDS011;50896;46.714;17.322;2023-07-20T13:38:36;1.95;;;1.50;;
64520;SDS011;50896;46.714;17.322;2023-07-20T13:41:15;3.22;;;1.50;;
64520;SDS011;50896;46.714;17.322;2023-07-20T13:43:47;2.83;;;1.63;;
64520;SDS011;50896;46.714;17.322;2023-07-20T13:46:23;4.45;;;1.70;;
64520;SDS011;50896;46.714;17.322;2023-07-20T13:49:14;2.95;;;1.17;;
64520;SDS011;50896;46.714;17.322;2023-07-20T13:51:51;4.15;;;1.73;;
64520;SDS011;50896;46.714;17.322;2023-07-20T13:54:23;2.63;;;1.40;;
64520;SDS011;50896;46.714;17.322;2023-07-20T13:56:57;3.58;;;1.75;;
64520;SDS011;50896;46.714;17.322;2023-07-20T13:59:30;2.78;;;1.80;;
64520;SDS011;50896;46.714;17.322;2023-07-20T14:02:01;3.20;;;1.60;;
64520;SDS011;50896;46.714;17.322;2023-07-20T14:04:36;4.78;;;1.67;;
64520;SDS011;50896;46.714;17.322;2023-07-20T14:07:10;3.92;;;1.85;;
64520;SDS011;50896;46.714;17.322;2023-07-20T14:09:44;2.75;;;1.50;;
64520;SDS011;50896;46.714;17.322;2023-07-20T14:12:37;4.70;;;1.60;;
64520;SDS011;50896;46.714;17.322;2023-07-20T14:17:35;3.03;;;1.75;;
64520;SDS011;50896;46.714;17.322;2023-07-20T14:20:11;3.08;;;1.45;;
64520;SDS011;50896;46.714;17.322;2023-07-20T14:22:46;5.97;;;1.77;;
64520;SDS011;50896;46.714;17.322;2023-07-20T14:25:29;4.10;;;1.65;;
64520;SDS011;50896;46.714;17.322;2023-07-20T14:28:08;3.78;;;1.60;;
64520;SDS011;50896;46.714;17.322;2023-07-20T14:30:45;3.50;;;1.60;;
64520;SDS011;50896;46.714;17.322;2023-07-20T14:33:14;4.47;;;1.63;;
64520;SDS011;50896;46.714;17.322;2023-07-20T14:35:48;3.53;;;1.80;;
64520;SDS011;50896;46.714;17.322;2023-07-20T14:38:33;2.75;;;1.50;;
64520;SDS011;50896;46.714;17.322;2023-07-20T14:41:07;4.97;;;1.60;;
64520;SDS011;50896;46.714;17.322;2023-07-20T14:43:43;4.18;;;1.60;;
64520;SDS011;50896;46.714;17.322;2023-07-20T14:46:33;2.65;;;1.50;;
64520;SDS011;50896;46.714;17.322;2023-07-20T14:49:06;3.85;;;1.40;;
64520;SDS011;50896;46.714;17.322;2023-07-20T14:51:34;2.85;;;1.52;;
64520;SDS011;50896;46.714;17.322;2023-07-20T14:54:05;2.63;;;1.60;;
64520;SDS011;50896;46.714;17.322;2023-07-20T14:56:35;2.03;;;1.30;;
64520;SDS011;50896;46.714;17.322;2023-07-20T14:59:14;3.45;;;1.55;;
64520;SDS011;50896;46.714;17.322;2023-07-20T15:01:50;2.28;;;1.48;;
64520;SDS011;50896;46.714;17.322;2023-07-20T15:04:24;1.55;;;1.33;;
64520;SDS011;50896;46.714;17.322;2023-07-20T15:06:54;3.83;;;1.50;;
64520;SDS011;50896;46.714;17.322;2023-07-20T15:09:30;4.40;;;1.60;;
64520;SDS011;50896;46.714;17.322;2023-07-20T15:12:13;2.08;;;1.30;;
64520;SDS011;50896;46.714;17.322;2023-07-20T15:15:12;1.80;;;1.30;;
64520;SDS011;50896;46.714;17.322;2023-07-20T15:17:41;4.05;;;1.30;;
64520;SDS011;50896;46.714;17.322;2023-07-20T15:20:10;3.13;;;1.58;;
64520;SDS011;50896;46.714;17.322;2023-07-20T15:22:51;2.45;;;1.40;;
64520;SDS011;50896;46.714;17.322;2023-07-20T15:25:27;2.50;;;1.52;;
64520;SDS011;50896;46.714;17.322;2023-07-20T15:27:57;2.75;;;1.30;;
64520;SDS011;50896;46.714;17.322;2023-07-20T15:30:27;3.28;;;1.30;;
64520;SDS011;50896;46.714;17.322;2023-07-20T15:32:58;1.95;;;1.42;;
64520;SDS011;50896;46.714;17.322;2023-07-20T15:35:32;1.38;;;1.27;;
64520;SDS011;50896;46.714;17.322;2023-07-20T15:38:17;1.42;;;1.10;;
64520;SDS011;50896;46.714;17.322;2023-07-20T15:40:47;8.57;;;1.70;;
64520;SDS011;50896;46.714;17.322;2023-07-20T15:43:22;5.53;;;1.20;;